Time;durP1;ratioP1;P1;durP2;ratioP2;P2;SDS_P1;SDS_P2;PMS_P1;PMS_P2;Temp;Humidity;BMP_temperature;BMP_pressure;BME280_temperature;BME280_humidity;BME280_pressure;Samples;Min_cycle;Max_cycle;Signal;HPM_P1;HPM_P2
2022/12/21 00:00:08;;;;;;;51.73;20.70;;;8.30;99.90;;;;;;4931920;29;20189;-64
2022/12/21 00:02:37;;;;;;;52.20;21.37;;;8.30;99.90;;;;;;4936003;29;20216;-65
2022/12/21 00:09:24;;;;;;;50.43;19.20;;;8.30;99.90;;;;;;4985838;28;20200;-64
2022/12/21 00:11:54;;;;;;;47.93;20.00;;;8.20;99.90;;;;;;4936406;29;20271;-65
2022/12/21 00:14:22;;;;;;;46.93;20.33;;;8.20;99.90;;;;;;4938530;29;20217;-64
2022/12/21 00:16:50;;;;;;;48.60;21.03;;;8.20;99.90;;;;;;4955230;29;20199;-64
2022/12/21 00:19:19;;;;;;;43.03;19.63;;;8.20;99.90;;;;;;4969985;28;20228;-65
2022/12/21 00:21:47;;;;;;;46.67;20.57;;;8.10;99.90;;;;;;4955190;28;20192;-64
2022/12/21 00:24:16;;;;;;;50.53;20.60;;;8.10;99.90;;;;;;4954200;28;20201;-65
2022/12/21 00:26:45;;;;;;;53.07;21.30;;;8.10;99.90;;;;;;4955378;28;20200;-65
2022/12/21 00:29:14;;;;;;;47.37;20.03;;;8.10;99.90;;;;;;4955179;28;20689;-65
2022/12/21 00:31:42;;;;;;;47.10;21.77;;;8.10;99.90;;;;;;4955400;28;20198;-65
2022/12/21 00:34:17;;;;;;;51.23;20.53;;;8.10;99.90;;;;;;4955047;28;20212;-65
2022/12/21 00:36:47;;;;;;;51.43;20.50;;;8.00;99.90;;;;;;4955296;28;20222;-65
2022/12/21 00:39:17;;;;;;;54.17;20.63;;;8.00;99.90;;;;;;4955559;28;20287;-65
2022/12/21 00:41:46;;;;;;;57.67;20.60;;;8.00;99.90;;;;;;4970014;28;20286;-65
2022/12/21 00:44:15;;;;;;;48.23;18.97;;;8.00;99.90;;;;;;4973123;28;20188;-65
2022/12/21 00:46:44;;;;;;;48.73;18.83;;;8.00;99.90;;;;;;4968505;28;20196;-64
2022/12/21 00:49:13;;;;;;;53.83;22.03;;;8.00;99.90;;;;;;4955064;29;20192;-65
2022/12/21 00:51:41;;;;;;;59.13;20.80;;;8.00;99.90;;;;;;4954850;29;20188;-65
2022/12/21 00:54:15;;;;;;;52.47;20.60;;;8.00;99.90;;;;;;4954681;28;20216;-65
2022/12/21 00:56:44;;;;;;;55.63;21.70;;;8.00;99.90;;;;;;4955101;29;20200;-64
2022/12/21 00:59:13;;;;;;;60.27;22.37;;;8.00;99.90;;;;;;4951973;29;20190;-65
2022/12/21 01:01:42;;;;;;;57.83;22.83;;;8.00;99.90;;;;;;4935392;29;20201;-65
2022/12/21 01:04:10;;;;;;;60.07;22.63;;;8.00;99.90;;;;;;4936050;29;20220;-64
2022/12/21 01:06:38;;;;;;;67.70;23.77;;;8.00;99.90;;;;;;4939701;29;20203;-65
2022/12/21 01:09:07;;;;;;;61.73;24.63;;;8.00;99.90;;;;;;4942121;28;20544;-65
2022/12/21 01:11:36;;;;;;;57.67;22.73;;;8.00;99.90;;;;;;4935531;29;20284;-65
2022/12/21 01:14:04;;;;;;;62.50;26.15;;;8.00;99.90;;;;;;4935067;29;20918;-64
2022/12/21 01:16:34;;;;;;;69.83;25.70;;;8.00;99.90;;;;;;4934834;29;20196;-65
2022/12/21 01:19:05;;;;;;;65.47;24.93;;;8.10;99.90;;;;;;4935310;29;20279;-66
2022/12/21 01:21:35;;;;;;;60.17;24.40;;;8.10;99.90;;;;;;5006988;28;20196;-64
2022/12/21 01:24:04;;;;;;;61.83;26.10;;;8.10;99.90;;;;;;5054386;28;20199;-64
2022/12/21 01:26:33;;;;;;;72.63;26.33;;;8.10;99.90;;;;;;5055892;28;20185;-64
2022/12/21 01:29:02;;;;;;;64.97;24.77;;;8.00;99.90;;;;;;4972622;28;20279;-64
2022/12/21 01:31:30;;;;;;;65.83;25.50;;;8.00;99.90;;;;;;4954761;28;20192;-64
2022/12/21 01:34:00;;;;;;;62.33;24.20;;;7.90;99.90;;;;;;4954086;28;20220;-64
2022/12/21 01:36:28;;;;;;;65.13;24.47;;;8.00;99.90;;;;;;4953234;29;20192;-65
2022/12/21 01:38:57;;;;;;;64.10;24.07;;;7.90;99.90;;;;;;4969069;28;20203;-65
2022/12/21 01:42:04;;;;;;;70.70;22.73;;;7.90;99.90;;;;;;4953942;28;20203;-65
2022/12/21 01:45:02;;;;;;;65.60;23.90;;;7.90;99.90;;;;;;4954067;29;20204;-64
2022/12/21 01:51:54;;;;;;;61.47;21.70;;;7.80;99.90;;;;;;4954200;28;20257;-65
2022/12/21 01:54:28;;;;;;;64.70;22.77;;;7.80;99.90;;;;;;4953847;29;20208;-65
2022/12/21 01:57:00;;;;;;;63.47;23.20;;;7.80;99.90;;;;;;4960414;28;20199;-65
2022/12/21 01:59:32;;;;;;;61.43;21.63;;;7.80;99.90;;;;;;4967247;28;20216;-65
2022/12/21 02:06:02;;;;;;;55.67;19.27;;;7.90;99.90;;;;;;4952743;29;20270;-64
2022/12/21 02:12:13;;;;;;;47.37;18.57;;;7.70;99.90;;;;;;4954739;28;20196;-65
2022/12/21 02:14:45;;;;;;;49.87;17.53;;;7.70;99.90;;;;;;4952309;29;20215;-65
2022/12/21 02:17:28;;;;;;;49.83;17.00;;;7.70;99.90;;;;;;4962171;28;20575;-64
2022/12/21 02:20:47;;;;;;;50.43;16.97;;;7.70;99.90;;;;;;4972547;28;20223;-65
2022/12/21 02:23:56;;;;;;;43.10;15.27;;;7.70;99.90;;;;;;4938952;28;20207;-65
2022/12/21 02:26:47;;;;;;;39.17;15.40;;;7.70;99.90;;;;;;4967833;28;20199;-65
2022/12/21 02:29:52;;;;;;;48.13;15.47;;;7.70;99.90;;;;;;4952249;28;20219;-64
2022/12/21 02:32:31;;;;;;;41.70;14.23;;;7.70;99.90;;;;;;4953506;28;20576;-65
2022/12/21 02:35:07;;;;;;;43.23;13.90;;;7.70;99.90;;;;;;4953441;29;20222;-64
2022/12/21 02:37:41;;;;;;;48.07;14.80;;;7.70;99.90;;;;;;4953493;28;20223;-64
2022/12/21 02:40:19;;;;;;;44.63;14.40;;;7.70;99.90;;;;;;4953303;28;20230;-65
2022/12/21 02:45:51;;;;;;;42.97;15.97;;;7.60;99.90;;;;;;4953054;28;20200;-65
2022/12/21 02:48:29;;;;;;;51.37;17.43;;;7.60;99.90;;;;;;4953203;29;20199;-64
2022/12/21 02:51:01;;;;;;;56.13;19.50;;;7.60;99.90;;;;;;4952944;29;20203;-65
2022/12/21 02:53:35;;;;;;;69.07;21.63;;;7.60;99.90;;;;;;4965141;28;20189;-64
2022/12/21 02:56:04;;;;;;;63.97;20.80;;;7.60;99.90;;;;;;4934021;29;20677;-64
2022/12/21 02:58:32;;;;;;;59.30;20.50;;;7.60;99.90;;;;;;4933948;29;20284;-64
2022/12/21 03:01:13;;;;;;;70.20;24.40;;;7.60;99.90;;;;;;4933970;29;20215;-64
2022/12/21 03:04:00;;;;;;;76.67;24.90;;;7.70;99.90;;;;;;4933678;29;20283;-65
2022/12/21 03:06:58;;;;;;;89.27;28.23;;;7.60;99.90;;;;;;4938665;28;20197;-64
2022/12/21 03:09:37;;;;;;;110.30;33.40;;;7.70;99.90;;;;;;4971331;28;20195;-64
2022/12/21 03:12:14;;;;;;;94.17;28.77;;;7.70;99.90;;;;;;5022616;28;20379;-64
2022/12/21 03:14:53;;;;;;;93.93;29.30;;;7.70;99.90;;;;;;5053937;28;20216;-64
2022/12/21 03:17:32;;;;;;;81.43;28.03;;;7.70;99.90;;;;;;4996308;28;20199;-64
2022/12/21 03:20:10;;;;;;;85.10;27.83;;;7.70;99.90;;;;;;4952466;29;20259;-64
2022/12/21 03:22:43;;;;;;;83.57;27.10;;;7.80;99.90;;;;;;4952572;29;20207;-64
2022/12/21 03:25:17;;;;;;;100.80;30.70;;;7.80;99.90;;;;;;4953005;28;20220;-64
2022/12/21 03:27:51;;;;;;;95.87;29.73;;;7.80;99.90;;;;;;4965195;28;20203;-64
2022/12/21 03:30:22;;;;;;;97.93;29.30;;;7.70;99.90;;;;;;4971919;28;20195;-64
2022/12/21 03:32:55;;;;;;;86.93;27.43;;;7.70;99.90;;;;;;4970624;28;20191;-64
2022/12/21 03:35:29;;;;;;;80.90;25.37;;;7.70;99.90;;;;;;4959862;28;20219;-64
2022/12/21 03:38:02;;;;;;;103.77;29.83;;;7.70;99.90;;;;;;4938668;29;20280;-64
2022/12/21 03:40:35;;;;;;;95.80;28.67;;;7.70;99.90;;;;;;4938120;29;20197;-64
2022/12/21 03:43:10;;;;;;;111.93;30.20;;;7.60;99.90;;;;;;4956359;29;20200;-64
2022/12/21 03:45:42;;;;;;;144.40;29.23;;;7.60;99.90;;;;;;4958712;28;20196;-64
2022/12/21 03:48:16;;;;;;;158.00;28.20;;;7.60;99.90;;;;;;4958562;28;20204;-64
2022/12/21 03:50:50;;;;;;;104.20;28.20;;;7.60;99.90;;;;;;4953716;29;20196;-64
2022/12/21 03:53:30;;;;;;;110.20;29.60;;;7.60;99.90;;;;;;4949129;28;20203;-64
2022/12/21 03:56:03;;;;;;;95.00;29.50;;;7.60;99.90;;;;;;4952139;29;20254;-64
2022/12/21 03:58:32;;;;;;;111.70;29.63;;;7.60;99.90;;;;;;4958507;29;20270;-64
2022/12/21 04:01:14;;;;;;;85.43;26.43;;;7.60;99.90;;;;;;4957559;29;20639;-64
2022/12/21 04:03:47;;;;;;;96.73;29.30;;;7.60;99.90;;;;;;4959059;28;20196;-64
2022/12/21 04:06:22;;;;;;;89.60;28.83;;;7.50;99.90;;;;;;4952639;29;20558;-64
2022/12/21 04:08:51;;;;;;;97.23;28.77;;;7.50;99.90;;;;;;4958928;28;20659;-64
2022/12/21 04:14:02;;;;;;;89.43;28.83;;;7.60;99.90;;;;;;4958170;29;20208;-64
2022/12/21 04:17:10;;;;;;;78.10;27.70;;;7.60;99.90;;;;;;4958187;29;20251;-65
2022/12/21 04:20:20;;;;;;;90.10;27.63;;;7.60;99.90;;;;;;4974936;28;20228;-64
2022/12/21 04:30:22;;;;;;;83.77;26.93;;;7.50;99.90;;;;;;4978077;28;20558;-64
2022/12/21 04:33:31;;;;;;;86.47;27.97;;;7.50;99.90;;;;;;4943071;29;20212;-64
2022/12/21 04:40:08;;;;;;;78.80;27.53;;;7.50;99.90;;;;;;4955295;29;20216;-64
2022/12/21 04:43:16;;;;;;;85.60;29.27;;;7.60;99.90;;;;;;4939645;28;20193;-64
2022/12/21 04:46:28;;;;;;;94.00;29.10;;;7.50;99.90;;;;;;4948876;29;20273;-64
2022/12/21 04:49:37;;;;;;;90.57;29.40;;;7.60;99.90;;;;;;4948181;28;20200;-64
2022/12/21 04:52:45;;;;;;;94.03;30.23;;;7.50;99.90;;;;;;4954098;29;20519;-64
2022/12/21 04:55:55;;;;;;;89.23;29.40;;;7.60;99.90;;;;;;4954646;28;20232;-64
2022/12/21 04:59:03;;;;;;;93.80;28.53;;;7.50;99.90;;;;;;4955018;29;20208;-64
2022/12/21 05:02:12;;;;;;;96.50;29.77;;;7.50;99.90;;;;;;4954890;29;20228;-64
2022/12/21 05:05:20;;;;;;;91.60;28.40;;;7.50;99.90;;;;;;4954816;29;20509;-64
2022/12/21 05:08:30;;;;;;;96.17;29.23;;;7.50;99.90;;;;;;4954831;29;20203;-65
2022/12/21 05:11:39;;;;;;;91.53;27.10;;;7.50;99.90;;;;;;4954012;28;20703;-64
2022/12/21 05:14:47;;;;;;;90.47;28.40;;;7.50;99.90;;;;;;4954585;28;20247;-65
2022/12/21 05:17:56;;;;;;;93.43;28.70;;;7.50;99.90;;;;;;4954236;29;20271;-65
2022/12/21 05:21:04;;;;;;;86.37;30.13;;;7.60;99.90;;;;;;4954746;28;20208;-65
2022/12/21 05:24:13;;;;;;;94.17;29.07;;;7.50;99.90;;;;;;4939046;29;20204;-65
2022/12/21 05:27:23;;;;;;;98.33;28.67;;;7.60;99.90;;;;;;4949487;28;20329;-65
2022/12/21 05:30:19;;;;;;;90.40;27.77;;;7.60;99.90;;;;;;4985433;28;20188;-65
2022/12/21 05:32:47;;;;;;;93.93;27.73;;;7.60;99.90;;;;;;4969240;28;20204;-64
2022/12/21 05:35:16;;;;;;;93.87;27.67;;;7.60;99.90;;;;;;4969280;28;20216;-64
2022/12/21 05:37:44;;;;;;;84.10;27.00;;;7.60;99.90;;;;;;4985449;28;20188;-64
2022/12/21 05:40:14;;;;;;;84.40;27.40;;;7.60;99.90;;;;;;4954082;29;20196;-64
2022/12/21 05:42:44;;;;;;;87.10;27.93;;;7.60;99.90;;;;;;4969438;28;20586;-65
2022/12/21 05:45:12;;;;;;;78.57;27.03;;;7.50;99.90;;;;;;4969076;28;20192;-65
2022/12/21 05:47:41;;;;;;;66.40;26.00;;;7.50;99.90;;;;;;4985432;28;20196;-64
2022/12/21 05:50:10;;;;;;;80.90;27.60;;;7.50;99.90;;;;;;4954135;28;20192;-65
2022/12/21 05:52:38;;;;;;;79.37;25.97;;;7.40;99.90;;;;;;4950078;29;20630;-65
2022/12/21 05:55:08;;;;;;;86.60;24.20;;;7.40;99.90;;;;;;4934682;29;20263;-65
2022/12/21 05:57:36;;;;;;;83.57;25.23;;;7.40;99.90;;;;;;4933468;29;20201;-65
2022/12/21 06:00:07;;;;;;;81.93;26.00;;;7.40;99.90;;;;;;4934815;29;20284;-64
2022/12/21 06:02:43;;;;;;;81.67;27.00;;;7.40;99.90;;;;;;4953331;28;20578;-65
2022/12/21 06:05:11;;;;;;;86.87;26.83;;;7.40;99.90;;;;;;4953692;29;20203;-65
2022/12/21 06:07:39;;;;;;;98.93;27.50;;;7.40;99.90;;;;;;4953921;28;20666;-65
2022/12/21 06:10:09;;;;;;;87.17;27.83;;;7.40;99.90;;;;;;4953895;29;20200;-65
2022/12/21 06:12:37;;;;;;;88.83;28.03;;;7.30;99.90;;;;;;4953159;29;20196;-64
2022/12/21 06:15:08;;;;;;;65.73;25.67;;;7.30;99.90;;;;;;4965834;28;20195;-65
2022/12/21 06:17:37;;;;;;;84.47;26.70;;;7.30;99.90;;;;;;4965182;28;20643;-64
2022/12/21 06:20:06;;;;;;;76.87;26.90;;;7.30;99.90;;;;;;4952459;29;20228;-64
2022/12/21 06:22:35;;;;;;;77.47;25.50;;;7.30;99.90;;;;;;4968781;28;20200;-65
2022/12/21 06:25:04;;;;;;;72.23;25.60;;;7.30;99.90;;;;;;4953802;28;20275;-64
2022/12/21 06:27:32;;;;;;;76.80;26.20;;;7.30;99.90;;;;;;4952393;29;20701;-65
2022/12/21 06:30:01;;;;;;;76.47;26.60;;;7.30;99.90;;;;;;4953855;29;20207;-65
2022/12/21 06:32:31;;;;;;;79.63;26.63;;;7.30;99.90;;;;;;4953287;29;20197;-64
2022/12/21 06:34:59;;;;;;;84.30;26.97;;;7.30;99.90;;;;;;4953537;29;20215;-64
2022/12/21 06:37:27;;;;;;;78.70;25.93;;;7.20;99.90;;;;;;4953445;29;20684;-64
2022/12/21 06:39:56;;;;;;;83.43;27.77;;;7.20;99.90;;;;;;4953422;28;20650;-65
2022/12/21 06:42:24;;;;;;;76.67;27.70;;;7.20;99.90;;;;;;4952202;29;20205;-64
2022/12/21 06:44:53;;;;;;;81.07;28.43;;;7.30;99.90;;;;;;4984452;28;20189;-64
2022/12/21 06:47:21;;;;;;;78.93;27.17;;;7.30;99.90;;;;;;4953067;28;20184;-64
2022/12/21 06:49:51;;;;;;;84.80;29.00;;;7.30;99.90;;;;;;4941919;29;20639;-65
2022/12/21 06:52:22;;;;;;;82.27;28.87;;;7.40;99.90;;;;;;4934115;29;20205;-65
2022/12/21 06:54:50;;;;;;;96.93;30.93;;;7.40;99.90;;;;;;4933806;29;20224;-64
2022/12/21 06:57:18;;;;;;;87.20;30.50;;;7.40;99.90;;;;;;4948797;28;20223;-64
2022/12/21 06:59:47;;;;;;;96.83;31.10;;;7.40;99.90;;;;;;4932759;29;20192;-64
2022/12/21 07:02:15;;;;;;;92.30;29.83;;;7.50;99.90;;;;;;4934135;29;20197;-64
2022/12/21 07:04:44;;;;;;;89.43;30.37;;;7.50;99.90;;;;;;4933017;29;20205;-65
2022/12/21 07:07:13;;;;;;;93.20;30.40;;;7.60;99.90;;;;;;4933632;29;20193;-64
2022/12/21 07:09:42;;;;;;;93.70;30.10;;;7.60;99.90;;;;;;4933866;29;20199;-64
2022/12/21 07:12:10;;;;;;;94.83;30.93;;;7.60;99.90;;;;;;4933907;29;20204;-65
2022/12/21 07:14:38;;;;;;;94.93;30.40;;;7.60;99.90;;;;;;4932892;29;20197;-64
2022/12/21 07:17:07;;;;;;;85.47;30.20;;;7.60;99.90;;;;;;4945571;28;20219;-64
2022/12/21 07:19:35;;;;;;;85.30;30.83;;;7.60;99.90;;;;;;4952710;28;20590;-64
2022/12/21 07:22:05;;;;;;;96.93;29.53;;;7.60;99.90;;;;;;4952999;28;20192;-64
2022/12/21 07:24:35;;;;;;;75.53;27.77;;;7.70;99.90;;;;;;4951662;28;20203;-64
2022/12/21 07:27:03;;;;;;;76.67;29.07;;;7.80;99.90;;;;;;4952486;28;20255;-64
2022/12/21 07:29:32;;;;;;;84.27;28.90;;;7.80;99.90;;;;;;4983972;28;20192;-64
2022/12/21 07:32:01;;;;;;;70.43;28.20;;;7.80;99.90;;;;;;4952908;28;20206;-64
2022/12/21 07:34:29;;;;;;;76.97;28.17;;;7.80;99.90;;;;;;4952847;29;20199;-64
2022/12/21 07:36:58;;;;;;;68.97;26.40;;;7.80;99.90;;;;;;4952513;29;20239;-64
2022/12/21 07:39:26;;;;;;;80.33;27.57;;;7.80;99.90;;;;;;4933492;29;20204;-65
2022/12/21 07:41:56;;;;;;;75.00;25.87;;;7.70;99.90;;;;;;4933795;29;20547;-65
2022/12/21 07:49:08;;;;;;;79.17;27.40;;;7.70;99.90;;;;;;4933322;29;20208;-64
2022/12/21 07:51:36;;;;;;;70.00;26.43;;;7.70;99.90;;;;;;4933287;29;20197;-64
2022/12/21 07:54:05;;;;;;;82.80;27.33;;;7.70;99.90;;;;;;4947965;29;20197;-64
2022/12/21 07:56:36;;;;;;;72.07;26.83;;;7.70;99.90;;;;;;4948465;29;20712;-64
2022/12/21 07:59:05;;;;;;;75.43;27.43;;;7.70;99.90;;;;;;4952459;28;20274;-64
2022/12/21 08:01:34;;;;;;;74.30;27.07;;;7.70;99.90;;;;;;4952744;28;20227;-64
2022/12/21 08:04:02;;;;;;;66.83;25.97;;;7.70;99.90;;;;;;4934925;29;20188;-64
2022/12/21 08:06:31;;;;;;;65.50;24.73;;;7.70;99.90;;;;;;4952104;28;20505;-65
2022/12/21 08:08:59;;;;;;;72.10;24.73;;;7.70;99.90;;;;;;4952265;28;20197;-65
2022/12/21 08:11:28;;;;;;;73.13;24.80;;;7.60;99.90;;;;;;4952261;28;20617;-65
2022/12/21 08:13:57;;;;;;;60.30;23.67;;;7.50;99.90;;;;;;4952080;28;20230;-64
2022/12/21 08:16:27;;;;;;;68.37;24.83;;;7.50;99.90;;;;;;4950673;29;20223;-64
2022/12/21 08:18:57;;;;;;;67.80;25.03;;;7.40;99.90;;;;;;4951061;28;20678;-65
2022/12/21 08:21:25;;;;;;;66.00;24.60;;;7.40;99.90;;;;;;4931679;29;20663;-64
2022/12/21 08:23:54;;;;;;;64.47;23.73;;;7.50;99.90;;;;;;4933415;29;20264;-64
2022/12/21 08:26:22;;;;;;;55.00;20.53;;;7.40;99.90;;;;;;4950464;28;20220;-64
2022/12/21 08:28:51;;;;;;;58.23;20.37;;;7.40;99.90;;;;;;4942465;29;20224;-64
2022/12/21 08:31:29;;;;;;;58.30;21.37;;;7.40;99.90;;;;;;4955775;28;20279;-64
2022/12/21 08:33:58;;;;;;;64.20;23.30;;;7.50;99.90;;;;;;4955586;29;20200;-64
2022/12/21 08:36:26;;;;;;;59.23;22.80;;;7.50;99.90;;;;;;4955008;28;20207;-64
2022/12/21 08:38:57;;;;;;;70.37;24.93;;;7.50;99.90;;;;;;4955589;28;20188;-64
2022/12/21 08:41:36;;;;;;;70.57;24.97;;;7.60;99.90;;;;;;4953769;29;20574;-64
2022/12/21 08:47:37;;;;;;;74.63;24.80;;;7.60;99.90;;;;;;4978030;28;20198;-64
2022/12/21 08:50:06;;;;;;;81.13;26.10;;;7.60;99.90;;;;;;4954809;29;20655;-64
2022/12/21 08:52:34;;;;;;;79.37;25.83;;;7.60;99.90;;;;;;4969867;28;20204;-64
2022/12/21 08:55:02;;;;;;;82.73;26.50;;;7.60;99.90;;;;;;4954772;28;20193;-64
2022/12/21 08:57:31;;;;;;;118.37;29.87;;;7.60;99.90;;;;;;4955098;29;20212;-64
2022/12/21 08:59:59;;;;;;;119.03;30.77;;;7.70;99.90;;;;;;4954666;28;20185;-64
2022/12/21 09:02:28;;;;;;;105.60;30.60;;;7.70;99.90;;;;;;4954597;28;20196;-64
2022/12/21 09:04:58;;;;;;;97.50;28.50;;;7.80;99.90;;;;;;4954770;28;20192;-64
2022/12/21 09:07:26;;;;;;;96.37;29.93;;;7.80;99.90;;;;;;4955180;28;20197;-64
2022/12/21 09:09:54;;;;;;;87.83;28.27;;;7.80;99.90;;;;;;4954577;28;20203;-64
2022/12/21 09:12:23;;;;;;;81.20;27.63;;;7.80;99.90;;;;;;4955115;28;20279;-64
2022/12/21 09:14:51;;;;;;;79.87;26.63;;;7.80;99.90;;;;;;4954539;28;20279;-64
2022/12/21 09:17:19;;;;;;;63.17;24.73;;;7.90;99.90;;;;;;4953146;29;20204;-64
2022/12/21 09:19:58;;;;;;;62.70;23.07;;;8.00;99.90;;;;;;4954375;28;20261;-64
2022/12/21 09:22:26;;;;;;;57.10;23.07;;;8.00;99.90;;;;;;4953538;29;20196;-64
2022/12/21 09:24:54;;;;;;;48.53;21.60;;;8.00;99.90;;;;;;4954363;28;20196;-64
2022/12/21 09:27:23;;;;;;;47.43;22.00;;;8.00;99.90;;;;;;4952972;28;20732;-64
2022/12/21 09:29:51;;;;;;;50.60;21.23;;;8.10;99.90;;;;;;4954439;28;20200;-64
2022/12/21 09:32:20;;;;;;;50.43;21.00;;;8.10;99.90;;;;;;4954378;28;20185;-65
2022/12/21 09:34:48;;;;;;;45.87;19.83;;;8.10;99.90;;;;;;4954505;28;20196;-64
2022/12/21 09:37:18;;;;;;;46.80;20.70;;;8.20;99.90;;;;;;4962717;28;20750;-65
2022/12/21 09:39:50;;;;;;;57.87;21.67;;;8.20;99.90;;;;;;4944505;29;20192;-64
2022/12/21 09:42:31;;;;;;;41.43;19.80;;;8.30;99.90;;;;;;4954485;28;20194;-64
2022/12/21 09:45:11;;;;;;;46.90;20.83;;;8.20;99.90;;;;;;4952879;29;20204;-64
2022/12/21 09:47:45;;;;;;;49.73;21.67;;;8.20;99.90;;;;;;4954693;29;20188;-64
2022/12/21 09:50:20;;;;;;;50.87;20.90;;;8.20;99.90;;;;;;4985576;28;20208;-64
2022/12/21 09:52:57;;;;;;;38.17;19.00;;;8.20;99.90;;;;;;4953989;28;20536;-64
2022/12/21 09:55:27;;;;;;;37.20;18.57;;;8.30;99.90;;;;;;4954200;29;20202;-64
2022/12/21 09:58:02;;;;;;;43.13;19.13;;;8.30;99.90;;;;;;4982356;28;20216;-64
2022/12/21 10:00:34;;;;;;;46.77;18.57;;;8.30;99.90;;;;;;5055198;28;20535;-65
2022/12/21 10:03:28;;;;;;;40.87;18.73;;;8.30;99.90;;;;;;5070411;28;20284;-64
2022/12/21 10:06:19;;;;;;;38.63;17.27;;;8.30;99.90;;;;;;4957992;28;20727;-63
2022/12/21 10:09:23;;;;;;;37.43;17.37;;;8.30;99.90;;;;;;4953973;29;20191;-64
2022/12/21 10:12:06;;;;;;;35.50;15.93;;;8.30;99.90;;;;;;4963021;28;20610;-64
2022/12/21 10:14:47;;;;;;;35.10;15.60;;;8.30;99.90;;;;;;4953940;29;20547;-64
2022/12/21 10:17:41;;;;;;;34.80;16.23;;;8.10;99.90;;;;;;4984456;28;20192;-64
2022/12/21 10:20:31;;;;;;;35.07;15.77;;;8.20;99.90;;;;;;4953425;29;20228;-64
2022/12/21 10:23:02;;;;;;;36.90;16.87;;;8.20;99.90;;;;;;4953850;29;20214;-64
2022/12/21 10:25:41;;;;;;;38.80;16.73;;;8.20;99.90;;;;;;4952140;29;20200;-64
2022/12/21 10:28:31;;;;;;;31.63;14.87;;;8.20;99.90;;;;;;4953423;28;20188;-63
2022/12/21 10:31:04;;;;;;;30.10;13.90;;;8.20;99.90;;;;;;4954406;28;20204;-64
2022/12/21 10:33:36;;;;;;;34.23;15.23;;;8.10;99.90;;;;;;4953912;29;20195;-64
2022/12/21 10:36:06;;;;;;;34.87;16.27;;;8.10;99.90;;;;;;4953606;28;20634;-63
2022/12/21 10:38:35;;;;;;;41.87;18.17;;;8.10;99.90;;;;;;4968392;28;20586;-63
2022/12/21 10:41:10;;;;;;;39.90;17.77;;;8.10;99.90;;;;;;4953201;29;20200;-64
2022/12/21 10:43:40;;;;;;;36.23;16.37;;;8.20;99.90;;;;;;4953188;29;20192;-64
2022/12/21 10:46:09;;;;;;;35.37;15.50;;;8.20;99.90;;;;;;4953800;28;20188;-63
2022/12/21 10:48:38;;;;;;;29.63;14.23;;;8.30;99.90;;;;;;4952528;28;20197;-64
2022/12/21 10:51:20;;;;;;;32.43;15.10;;;8.30;99.90;;;;;;4952622;29;20192;-64
2022/12/21 10:53:59;;;;;;;35.77;14.90;;;8.30;99.90;;;;;;4953495;29;20673;-64
2022/12/21 10:56:32;;;;;;;37.13;14.70;;;8.30;99.90;;;;;;4953051;29;20675;-63
2022/12/21 10:59:06;;;;;;;28.77;14.37;;;8.30;99.90;;;;;;4951714;29;20756;-64
2022/12/21 11:01:35;;;;;;;28.73;14.23;;;8.30;99.90;;;;;;4953264;29;20176;-63
2022/12/21 11:04:41;;;;;;;31.37;13.30;;;8.40;99.90;;;;;;4953373;29;20580;-64
2022/12/21 11:07:25;;;;;;;28.63;13.23;;;8.40;99.90;;;;;;4953148;28;20191;-64
2022/12/21 11:10:27;;;;;;;24.90;13.33;;;8.50;99.90;;;;;;4967585;28;20555;-63
2022/12/21 11:13:19;;;;;;;30.07;13.17;;;8.50;99.90;;;;;;4952765;29;20703;-63
2022/12/21 11:15:54;;;;;;;29.30;13.43;;;8.60;99.90;;;;;;4952775;29;20193;-63
2022/12/21 11:18:48;;;;;;;26.53;12.93;;;8.70;99.90;;;;;;4952514;29;20574;-64
2022/12/21 11:21:35;;;;;;;23.00;11.47;;;8.70;99.90;;;;;;4953060;28;20265;-63
2022/12/21 11:24:11;;;;;;;24.97;11.17;;;8.70;99.90;;;;;;4952712;28;20199;-63
2022/12/21 11:26:44;;;;;;;27.47;11.33;;;8.70;99.90;;;;;;4952577;29;20214;-63
2022/12/21 11:29:24;;;;;;;26.90;10.77;;;8.80;99.90;;;;;;4935463;28;20536;-63
2022/12/21 11:31:54;;;;;;;24.80;11.43;;;8.70;99.90;;;;;;4952587;29;20554;-63
2022/12/21 11:34:32;;;;;;;22.70;11.00;;;8.80;99.90;;;;;;4952921;29;20193;-64
2022/12/21 11:37:02;;;;;;;25.23;11.37;;;8.80;99.90;;;;;;4953030;29;20203;-63
2022/12/21 11:39:43;;;;;;;18.47;11.10;;;8.90;99.90;;;;;;4951620;29;20224;-63
2022/12/21 11:42:18;;;;;;;21.30;10.80;;;8.90;99.90;;;;;;4951368;29;20222;-63
2022/12/21 11:44:49;;;;;;;24.13;10.90;;;8.90;99.90;;;;;;4952784;28;20199;-64
2022/12/21 11:47:40;;;;;;;19.63;9.73;;;8.90;99.90;;;;;;4952491;29;20196;-63
2022/12/21 11:50:27;;;;;;;20.03;10.30;;;8.90;99.90;;;;;;4952372;28;20184;-64
2022/12/21 11:53:16;;;;;;;20.90;9.90;;;8.90;99.90;;;;;;4952572;29;20203;-63
2022/12/21 11:56:00;;;;;;;15.83;9.60;;;8.90;99.90;;;;;;4952295;29;20195;-63
2022/12/21 11:58:45;;;;;;;17.67;9.00;;;8.90;99.90;;;;;;4952238;29;20310;-63
2022/12/21 12:01:26;;;;;;;16.40;9.47;;;8.90;99.90;;;;;;4954079;28;20264;-62
2022/12/21 12:04:20;;;;;;;21.00;9.87;;;8.90;99.90;;;;;;4956316;28;20198;-63
2022/12/21 12:07:02;;;;;;;18.23;9.97;;;8.90;99.90;;;;;;4955987;28;20192;-63
2022/12/21 12:10:05;;;;;;;21.90;9.43;;;8.90;99.90;;;;;;4955982;28;20699;-63
2022/12/21 12:12:43;;;;;;;14.67;9.30;;;8.90;99.90;;;;;;4955986;28;20212;-63
2022/12/21 12:15:27;;;;;;;19.60;8.93;;;8.90;99.90;;;;;;4938777;28;20196;-62
2022/12/21 12:18:14;;;;;;;13.80;8.70;;;8.90;99.90;;;;;;4955420;28;20202;-63
2022/12/21 12:21:02;;;;;;;12.90;8.40;;;8.90;99.90;;;;;;4955400;28;20564;-63
2022/12/21 12:23:39;;;;;;;17.23;8.80;;;9.00;99.90;;;;;;4954553;28;20188;-62
2022/12/21 12:26:18;;;;;;;15.53;8.60;;;9.00;99.90;;;;;;4955147;29;20216;-63
2022/12/21 12:29:14;;;;;;;15.73;8.10;;;9.10;99.90;;;;;;4955526;28;20221;-62
2022/12/21 12:32:02;;;;;;;14.73;8.17;;;9.10;99.90;;;;;;4955450;28;20200;-63
2022/12/21 12:35:03;;;;;;;12.50;7.83;;;9.10;99.90;;;;;;4954332;29;20242;-63
2022/12/21 12:37:38;;;;;;;20.00;8.80;;;9.10;99.90;;;;;;4953695;28;20246;-63
2022/12/21 12:40:20;;;;;;;18.40;9.07;;;9.10;99.90;;;;;;4954189;29;20212;-63
2022/12/21 12:42:55;;;;;;;20.93;9.13;;;9.30;99.90;;;;;;4955141;28;20633;-63
2022/12/21 12:45:37;;;;;;;13.80;8.07;;;9.30;99.90;;;;;;4955424;28;20203;-62
2022/12/21 12:48:17;;;;;;;21.40;9.20;;;9.30;99.90;;;;;;4953929;29;20638;-63
2022/12/21 12:50:53;;;;;;;18.80;8.43;;;9.30;99.90;;;;;;4953851;28;20192;-62
2022/12/21 12:53:33;;;;;;;14.00;7.83;;;9.30;99.90;;;;;;4955012;29;20188;-63
2022/12/21 13:00:49;;;;;;;18.97;6.93;;;9.40;99.90;;;;;;4954766;29;20227;-63
2022/12/21 13:07:51;;;;;;;13.00;6.63;;;9.50;99.90;;;;;;4954942;29;20688;-62
2022/12/21 13:10:35;;;;;;;18.73;7.20;;;9.50;99.90;;;;;;4953694;29;20246;-62
2022/12/21 13:13:10;;;;;;;9.73;6.57;;;9.50;99.90;;;;;;4953621;28;20196;-63
2022/12/21 13:15:44;;;;;;;11.23;6.90;;;9.50;99.90;;;;;;4954884;28;20188;-62
2022/12/21 13:18:15;;;;;;;11.00;6.70;;;9.50;99.90;;;;;;4953315;29;20202;-63
2022/12/21 13:20:47;;;;;;;6.90;5.57;;;9.50;99.90;;;;;;4954420;29;20226;-63
2022/12/21 13:23:21;;;;;;;7.73;5.80;;;9.60;99.90;;;;;;4953829;28;20234;-63
2022/12/21 13:25:55;;;;;;;15.77;6.37;;;9.60;99.90;;;;;;4954343;29;20298;-63
2022/12/21 13:28:29;;;;;;;11.70;5.90;;;9.60;99.90;;;;;;4954654;28;20196;-63
2022/12/21 13:31:00;;;;;;;6.30;5.33;;;9.60;99.90;;;;;;4954380;28;20188;-63
2022/12/21 13:33:32;;;;;;;8.70;5.43;;;9.60;99.90;;;;;;4954440;29;20546;-63
2022/12/21 13:36:04;;;;;;;9.30;5.40;;;9.60;99.90;;;;;;4954229;28;20207;-62
2022/12/21 13:38:39;;;;;;;6.33;5.00;;;9.60;99.90;;;;;;4969368;28;20196;-63
2022/12/21 13:41:11;;;;;;;9.63;5.83;;;9.60;99.90;;;;;;4937486;29;20188;-63
2022/12/21 13:43:43;;;;;;;7.50;5.20;;;9.60;99.90;;;;;;4955227;28;20207;-62
2022/12/21 13:46:33;;;;;;;7.97;4.70;;;9.60;99.90;;;;;;4954112;28;20524;-63
2022/12/21 13:49:14;;;;;;;6.37;4.80;;;9.60;99.90;;;;;;4954913;28;20539;-62
2022/12/21 13:51:50;;;;;;;10.80;4.87;;;9.70;99.90;;;;;;4952727;29;20275;-63
2022/12/21 13:58:54;;;;;;;9.47;4.80;;;9.70;99.90;;;;;;4954373;29;20187;-63
2022/12/21 14:01:39;;;;;;;5.13;4.63;;;9.70;99.90;;;;;;4954106;29;20188;-62
2022/12/21 14:04:15;;;;;;;8.00;4.40;;;9.70;99.90;;;;;;4953860;28;20267;-62
2022/12/21 14:07:05;;;;;;;4.77;4.37;;;9.70;99.90;;;;;;4954381;29;20228;-63
2022/12/21 14:09:47;;;;;;;7.13;4.47;;;9.70;99.90;;;;;;4953113;29;20191;-63
2022/12/21 14:12:53;;;;;;;5.87;4.47;;;9.70;99.90;;;;;;4954271;28;20642;-63
2022/12/21 14:15:43;;;;;;;6.20;4.83;;;9.70;99.90;;;;;;4952786;28;20192;-63
2022/12/21 14:18:15;;;;;;;10.40;4.70;;;9.70;99.90;;;;;;4954197;28;20279;-62
2022/12/21 14:20:44;;;;;;;4.83;4.40;;;9.70;99.90;;;;;;4953546;28;20302;-62